sensor_id;sensor_type;location;lat;lon;timestamp;P1;durP1;ratioP1;P2;durP2;ratioP2
15665;SDS011;20725;51.196;3.510;2022-12-24T00:01:23;43.37;;;7.93;;
15665;SDS011;20725;51.196;3.510;2022-12-24T00:03:50;49.97;;;8.37;;
15665;SDS011;20725;51.196;3.510;2022-12-24T00:06:17;49.33;;;8.53;;
15665;SDS011;20725;51.196;3.510;2022-12-24T00:08:47;45.43;;;8.50;;
15665;SDS011;20725;51.196;3.510;2022-12-24T00:11:15;46.33;;;7.87;;
15665;SDS011;20725;51.196;3.510;2022-12-24T00:13:42;52.57;;;9.60;;
15665;SDS011;20725;51.196;3.510;2022-12-24T00:16:09;47.63;;;8.80;;
15665;SDS011;20725;51.196;3.510;2022-12-24T00:18:36;50.97;;;8.97;;
15665;SDS011;20725;51.196;3.510;2022-12-24T00:21:03;47.73;;;7.87;;
15665;SDS011;20725;51.196;3.510;2022-12-24T00:23:31;45.43;;;8.47;;
15665;SDS011;20725;51.196;3.510;2022-12-24T00:25:59;48.83;;;8.37;;
15665;SDS011;20725;51.196;3.510;2022-12-24T00:28:26;40.97;;;8.80;;
15665;SDS011;20725;51.196;3.510;2022-12-24T00:30:52;44.77;;;8.30;;
15665;SDS011;20725;51.196;3.510;2022-12-24T00:33:19;49.57;;;8.93;;
15665;SDS011;20725;51.196;3.510;2022-12-24T00:35:48;41.30;;;8.00;;
15665;SDS011;20725;51.196;3.510;2022-12-24T00:38:16;31.50;;;7.17;;
15665;SDS011;20725;51.196;3.510;2022-12-24T00:40:42;35.33;;;7.80;;
15665;SDS011;20725;51.196;3.510;2022-12-24T00:43:11;43.23;;;7.60;;
15665;SDS011;20725;51.196;3.510;2022-12-24T00:45:38;38.40;;;7.40;;
15665;SDS011;20725;51.196;3.510;2022-12-24T00:48:05;30.23;;;7.00;;
15665;SDS011;20725;51.196;3.510;2022-12-24T00:50:32;38.13;;;6.43;;
15665;SDS011;20725;51.196;3.510;2022-12-24T00:52:59;38.40;;;7.97;;
15665;SDS011;20725;51.196;3.510;2022-12-24T00:55:25;31.57;;;7.80;;
15665;SDS011;20725;51.196;3.510;2022-12-24T00:57:52;31.30;;;7.33;;
15665;SDS011;20725;51.196;3.510;2022-12-24T01:02:58;31.67;;;5.90;;
15665;SDS011;20725;51.196;3.510;2022-12-24T01:05:25;33.80;;;6.47;;
15665;SDS011;20725;51.196;3.510;2022-12-24T01:07:51;26.47;;;5.63;;
15665;SDS011;20725;51.196;3.510;2022-12-24T01:10:18;28.23;;;5.13;;
15665;SDS011;20725;51.196;3.510;2022-12-24T01:12:45;26.03;;;6.23;;
15665;SDS011;20725;51.196;3.510;2022-12-24T01:15:13;29.10;;;6.30;;
15665;SDS011;20725;51.196;3.510;2022-12-24T01:17:40;24.87;;;6.60;;
15665;SDS011;20725;51.196;3.510;2022-12-24T01:20:10;24.53;;;5.50;;
15665;SDS011;20725;51.196;3.510;2022-12-24T01:22:39;26.23;;;5.03;;
15665;SDS011;20725;51.196;3.510;2022-12-24T01:25:06;22.17;;;5.80;;
15665;SDS011;20725;51.196;3.510;2022-12-24T01:27:34;36.57;;;6.43;;
15665;SDS011;20725;51.196;3.510;2022-12-24T01:30:01;24.10;;;5.87;;
15665;SDS011;20725;51.196;3.510;2022-12-24T01:32:28;26.40;;;5.20;;
15665;SDS011;20725;51.196;3.510;2022-12-24T01:34:55;23.40;;;5.07;;
15665;SDS011;20725;51.196;3.510;2022-12-24T01:37:23;24.57;;;5.10;;
15665;SDS011;20725;51.196;3.510;2022-12-24T01:39:50;28.00;;;5.70;;
15665;SDS011;20725;51.196;3.510;2022-12-24T01:42:37;22.83;;;5.00;;
15665;SDS011;20725;51.196;3.510;2022-12-24T01:45:40;23.07;;;5.73;;
15665;SDS011;20725;51.196;3.510;2022-12-24T01:48:13;25.43;;;6.43;;
15665;SDS011;20725;51.196;3.510;2022-12-24T01:50:44;31.90;;;6.13;;
15665;SDS011;20725;51.196;3.510;2022-12-24T01:53:14;22.83;;;5.90;;
15665;SDS011;20725;51.196;3.510;2022-12-24T01:55:42;30.43;;;5.67;;
15665;SDS011;20725;51.196;3.510;2022-12-24T01:58:11;40.40;;;6.70;;
15665;SDS011;20725;51.196;3.510;2022-12-24T02:00:40;41.23;;;6.30;;
15665;SDS011;20725;51.196;3.510;2022-12-24T02:03:07;38.37;;;7.23;;
15665;SDS011;20725;51.196;3.510;2022-12-24T02:05:35;34.87;;;6.13;;
15665;SDS011;20725;51.196;3.510;2022-12-24T02:08:10;44.90;;;7.60;;
15665;SDS011;20725;51.196;3.510;2022-12-24T02:10:38;42.53;;;7.13;;
15665;SDS011;20725;51.196;3.510;2022-12-24T02:13:05;37.33;;;7.43;;
15665;SDS011;20725;51.196;3.510;2022-12-24T02:15:33;45.43;;;7.40;;
15665;SDS011;20725;51.196;3.510;2022-12-24T02:18:16;38.70;;;6.80;;
15665;SDS011;20725;51.196;3.510;2022-12-24T02:20:55;51.77;;;8.07;;
15665;SDS011;20725;51.196;3.510;2022-12-24T02:23:57;40.20;;;8.00;;
15665;SDS011;20725;51.196;3.510;2022-12-24T02:26:44;39.00;;;7.27;;
15665;SDS011;20725;51.196;3.510;2022-12-24T02:32:25;37.77;;;7.30;;
15665;SDS011;20725;51.196;3.510;2022-12-24T02:34:57;38.53;;;7.60;;
15665;SDS011;20725;51.196;3.510;2022-12-24T02:37:30;49.70;;;7.20;;
15665;SDS011;20725;51.196;3.510;2022-12-24T02:40:00;37.00;;;7.77;;
15665;SDS011;20725;51.196;3.510;2022-12-24T02:42:34;39.37;;;8.17;;
15665;SDS011;20725;51.196;3.510;2022-12-24T02:45:06;43.53;;;8.00;;
15665;SDS011;20725;51.196;3.510;2022-12-24T02:47:36;33.33;;;7.60;;
15665;SDS011;20725;51.196;3.510;2022-12-24T02:50:05;37.00;;;7.80;;
15665;SDS011;20725;51.196;3.510;2022-12-24T02:52:34;35.97;;;6.87;;
15665;SDS011;20725;51.196;3.510;2022-12-24T02:55:03;33.43;;;7.00;;
15665;SDS011;20725;51.196;3.510;2022-12-24T02:57:36;38.90;;;7.03;;
15665;SDS011;20725;51.196;3.510;2022-12-24T03:00:18;27.47;;;6.07;;
15665;SDS011;20725;51.196;3.510;2022-12-24T03:05:43;33.73;;;7.10;;
15665;SDS011;20725;51.196;3.510;2022-12-24T03:08:15;27.43;;;6.27;;
15665;SDS011;20725;51.196;3.510;2022-12-24T03:10:51;36.20;;;6.47;;
15665;SDS011;20725;51.196;3.510;2022-12-24T03:13:22;36.07;;;6.20;;
15665;SDS011;20725;51.196;3.510;2022-12-24T03:15:51;19.63;;;4.53;;
15665;SDS011;20725;51.196;3.510;2022-12-24T03:18:19;31.50;;;6.27;;
15665;SDS011;20725;51.196;3.510;2022-12-24T03:20:49;25.77;;;5.57;;
15665;SDS011;20725;51.196;3.510;2022-12-24T03:23:21;32.23;;;6.73;;
15665;SDS011;20725;51.196;3.510;2022-12-24T03:25:49;31.10;;;5.93;;
15665;SDS011;20725;51.196;3.510;2022-12-24T03:28:16;38.80;;;7.23;;
15665;SDS011;20725;51.196;3.510;2022-12-24T03:30:45;34.33;;;5.97;;
15665;SDS011;20725;51.196;3.510;2022-12-24T03:33:15;23.00;;;5.97;;
15665;SDS011;20725;51.196;3.510;2022-12-24T03:35:43;32.53;;;7.20;;
15665;SDS011;20725;51.196;3.510;2022-12-24T03:38:10;32.33;;;6.40;;
15665;SDS011;20725;51.196;3.510;2022-12-24T03:40:37;25.80;;;6.83;;
15665;SDS011;20725;51.196;3.510;2022-12-24T03:43:04;35.20;;;6.93;;
15665;SDS011;20725;51.196;3.510;2022-12-24T03:45:30;35.00;;;6.77;;
15665;SDS011;20725;51.196;3.510;2022-12-24T03:47:57;37.70;;;6.90;;
15665;SDS011;20725;51.196;3.510;2022-12-24T03:50:26;25.10;;;6.73;;
15665;SDS011;20725;51.196;3.510;2022-12-24T03:52:53;29.97;;;6.50;;
15665;SDS011;20725;51.196;3.510;2022-12-24T03:55:20;29.57;;;5.97;;
15665;SDS011;20725;51.196;3.510;2022-12-24T03:57:47;30.97;;;6.97;;
15665;SDS011;20725;51.196;3.510;2022-12-24T04:00:14;33.43;;;7.27;;
15665;SDS011;20725;51.196;3.510;2022-12-24T04:02:42;25.50;;;6.33;;
15665;SDS011;20725;51.196;3.510;2022-12-24T04:05:10;33.13;;;6.63;;
15665;SDS011;20725;51.196;3.510;2022-12-24T04:07:41;27.97;;;6.27;;
15665;SDS011;20725;51.196;3.510;2022-12-24T04:10:09;32.00;;;6.97;;
15665;SDS011;20725;51.196;3.510;2022-12-24T04:12:36;34.73;;;6.70;;
15665;SDS011;20725;51.196;3.510;2022-12-24T04:15:04;26.00;;;6.20;;
15665;SDS011;20725;51.196;3.510;2022-12-24T04:17:31;33.50;;;6.10;;
15665;SDS011;20725;51.196;3.510;2022-12-24T04:19:58;32.23;;;7.57;;
15665;SDS011;20725;51.196;3.510;2022-12-24T04:22:25;34.83;;;7.23;;
15665;SDS011;20725;51.196;3.510;2022-12-24T04:24:53;36.03;;;7.33;;
15665;SDS011;20725;51.196;3.510;2022-12-24T04:27:20;28.77;;;6.70;;
15665;SDS011;20725;51.196;3.510;2022-12-24T04:29:47;34.37;;;6.33;;
15665;SDS011;20725;51.196;3.510;2022-12-24T04:32:15;25.03;;;6.83;;
15665;SDS011;20725;51.196;3.510;2022-12-24T04:34:41;38.23;;;7.43;;
15665;SDS011;20725;51.196;3.510;2022-12-24T04:37:08;40.00;;;7.77;;
15665;SDS011;20725;51.196;3.510;2022-12-24T04:39:35;41.73;;;8.17;;
15665;SDS011;20725;51.196;3.510;2022-12-24T04:42:04;36.67;;;8.07;;
15665;SDS011;20725;51.196;3.510;2022-12-24T04:44:31;36.53;;;8.87;;
15665;SDS011;20725;51.196;3.510;2022-12-24T04:46:57;23.77;;;6.13;;
15665;SDS011;20725;51.196;3.510;2022-12-24T04:49:24;35.83;;;7.13;;
15665;SDS011;20725;51.196;3.510;2022-12-24T04:51:51;39.67;;;8.87;;
15665;SDS011;20725;51.196;3.510;2022-12-24T04:54:18;34.87;;;7.47;;
15665;SDS011;20725;51.196;3.510;2022-12-24T04:56:45;36.23;;;7.37;;
15665;SDS011;20725;51.196;3.510;2022-12-24T04:59:13;32.93;;;6.50;;
15665;SDS011;20725;51.196;3.510;2022-12-24T05:01:40;43.37;;;7.33;;
15665;SDS011;20725;51.196;3.510;2022-12-24T05:04:07;24.80;;;5.97;;
15665;SDS011;20725;51.196;3.510;2022-12-24T05:06:35;45.93;;;7.63;;
15665;SDS011;20725;51.196;3.510;2022-12-24T05:09:02;42.70;;;7.70;;
15665;SDS011;20725;51.196;3.510;2022-12-24T05:11:29;35.83;;;7.73;;
15665;SDS011;20725;51.196;3.510;2022-12-24T05:13:56;32.10;;;6.23;;
15665;SDS011;20725;51.196;3.510;2022-12-24T05:16:24;37.23;;;7.77;;
15665;SDS011;20725;51.196;3.510;2022-12-24T05:18:51;39.50;;;6.63;;
15665;SDS011;20725;51.196;3.510;2022-12-24T05:21:19;43.00;;;7.70;;
15665;SDS011;20725;51.196;3.510;2022-12-24T05:23:47;42.93;;;8.03;;
15665;SDS011;20725;51.196;3.510;2022-12-24T05:26:44;44.80;;;8.67;;
15665;SDS011;20725;51.196;3.510;2022-12-24T05:29:14;40.43;;;8.20;;
15665;SDS011;20725;51.196;3.510;2022-12-24T05:31:43;46.23;;;8.63;;
15665;SDS011;20725;51.196;3.510;2022-12-24T05:34:10;40.00;;;7.87;;
15665;SDS011;20725;51.196;3.510;2022-12-24T05:36:38;44.07;;;8.30;;
15665;SDS011;20725;51.196;3.510;2022-12-24T05:39:05;37.80;;;7.43;;
15665;SDS011;20725;51.196;3.510;2022-12-24T05:41:33;31.63;;;6.87;;
15665;SDS011;20725;51.196;3.510;2022-12-24T05:44:00;26.97;;;6.77;;
15665;SDS011;20725;51.196;3.510;2022-12-24T05:46:27;40.23;;;6.60;;
15665;SDS011;20725;51.196;3.510;2022-12-24T05:48:55;44.43;;;8.20;;
15665;SDS011;20725;51.196;3.510;2022-12-24T05:51:22;42.10;;;7.47;;
15665;SDS011;20725;51.196;3.510;2022-12-24T05:53:49;35.03;;;6.93;;
15665;SDS011;20725;51.196;3.510;2022-12-24T05:56:17;38.10;;;5.67;;
15665;SDS011;20725;51.196;3.510;2022-12-24T05:58:45;31.13;;;7.13;;
15665;SDS011;20725;51.196;3.510;2022-12-24T06:01:12;34.87;;;7.27;;
15665;SDS011;20725;51.196;3.510;2022-12-24T06:03:39;40.07;;;7.30;;
15665;SDS011;20725;51.196;3.510;2022-12-24T06:06:08;42.13;;;8.27;;
15665;SDS011;20725;51.196;3.510;2022-12-24T06:08:37;37.10;;;6.47;;
15665;SDS011;20725;51.196;3.510;2022-12-24T06:11:05;27.50;;;7.40;;
15665;SDS011;20725;51.196;3.510;2022-12-24T06:13:33;33.40;;;6.67;;
15665;SDS011;20725;51.196;3.510;2022-12-24T06:16:01;29.87;;;6.77;;
15665;SDS011;20725;51.196;3.510;2022-12-24T06:18:29;36.77;;;6.63;;
15665;SDS011;20725;51.196;3.510;2022-12-24T06:20:57;41.87;;;9.00;;
15665;SDS011;20725;51.196;3.510;2022-12-24T06:23:27;44.33;;;7.77;;
15665;SDS011;20725;51.196;3.510;2022-12-24T06:25:54;30.53;;;7.90;;
15665;SDS011;20725;51.196;3.510;2022-12-24T06:28:25;46.53;;;7.80;;
15665;SDS011;20725;51.196;3.510;2022-12-24T06:30:52;35.63;;;7.47;;
15665;SDS011;20725;51.196;3.510;2022-12-24T06:33:19;42.97;;;8.43;;
15665;SDS011;20725;51.196;3.510;2022-12-24T06:35:46;45.50;;;8.17;;
15665;SDS011;20725;51.196;3.510;2022-12-24T06:38:13;42.13;;;8.47;;
15665;SDS011;20725;51.196;3.510;2022-12-24T06:40:42;38.77;;;8.33;;
15665;SDS011;20725;51.196;3.510;2022-12-24T06:43:11;30.07;;;7.20;;
15665;SDS011;20725;51.196;3.510;2022-12-24T06:45:38;46.87;;;8.07;;
15665;SDS011;20725;51.196;3.510;2022-12-24T06:48:05;46.63;;;8.27;;
15665;SDS011;20725;51.196;3.510;2022-12-24T06:50:33;40.93;;;7.53;;
15665;SDS011;20725;51.196;3.510;2022-12-24T06:53:00;41.40;;;7.80;;
15665;SDS011;20725;51.196;3.510;2022-12-24T06:55:27;47.60;;;7.80;;
15665;SDS011;20725;51.196;3.510;2022-12-24T06:57:55;43.43;;;8.20;;
15665;SDS011;20725;51.196;3.510;2022-12-24T07:00:22;47.03;;;9.07;;
15665;SDS011;20725;51.196;3.510;2022-12-24T07:02:49;46.10;;;7.97;;
15665;SDS011;20725;51.196;3.510;2022-12-24T07:05:16;40.17;;;7.60;;
15665;SDS011;20725;51.196;3.510;2022-12-24T07:07:43;48.90;;;8.87;;
15665;SDS011;20725;51.196;3.510;2022-12-24T07:10:11;43.37;;;7.60;;
15665;SDS011;20725;51.196;3.510;2022-12-24T07:12:39;42.87;;;8.10;;
15665;SDS011;20725;51.196;3.510;2022-12-24T07:15:08;35.67;;;8.23;;
15665;SDS011;20725;51.196;3.510;2022-12-24T07:17:35;39.30;;;7.97;;
15665;SDS011;20725;51.196;3.510;2022-12-24T07:20:03;49.53;;;8.63;;
15665;SDS011;20725;51.196;3.510;2022-12-24T07:22:31;49.03;;;9.80;;
15665;SDS011;20725;51.196;3.510;2022-12-24T07:24:58;38.27;;;8.10;;
15665;SDS011;20725;51.196;3.510;2022-12-24T07:27:24;40.70;;;8.77;;
15665;SDS011;20725;51.196;3.510;2022-12-24T07:29:51;46.60;;;8.87;;
15665;SDS011;20725;51.196;3.510;2022-12-24T07:32:19;42.67;;;8.23;;
15665;SDS011;20725;51.196;3.510;2022-12-24T07:34:46;36.90;;;8.33;;
15665;SDS011;20725;51.196;3.510;2022-12-24T07:37:13;37.20;;;7.30;;
15665;SDS011;20725;51.196;3.510;2022-12-24T07:39:40;36.07;;;8.63;;
15665;SDS011;20725;51.196;3.510;2022-12-24T07:42:07;39.67;;;8.27;;
15665;SDS011;20725;51.196;3.510;2022-12-24T07:44:34;39.83;;;8.00;;
15665;SDS011;20725;51.196;3.510;2022-12-24T07:47:01;51.27;;;8.63;;
15665;SDS011;20725;51.196;3.510;2022-12-24T07:49:30;41.40;;;7.90;;
15665;SDS011;20725;51.196;3.510;2022-12-24T07:51:57;38.57;;;8.23;;
15665;SDS011;20725;51.196;3.510;2022-12-24T07:54:24;43.20;;;7.80;;
15665;SDS011;20725;51.196;3.510;2022-12-24T07:56:50;39.93;;;8.53;;
15665;SDS011;20725;51.196;3.510;2022-12-24T07:59:18;52.27;;;9.93;;
15665;SDS011;20725;51.196;3.510;2022-12-24T08:01:46;42.27;;;7.80;;
15665;SDS011;20725;51.196;3.510;2022-12-24T08:04:13;46.77;;;8.80;;
15665;SDS011;20725;51.196;3.510;2022-12-24T08:06:41;35.50;;;7.70;;
15665;SDS011;20725;51.196;3.510;2022-12-24T08:09:08;48.53;;;8.47;;
15665;SDS011;20725;51.196;3.510;2022-12-24T08:11:35;37.20;;;8.90;;
15665;SDS011;20725;51.196;3.510;2022-12-24T08:14:02;35.37;;;8.37;;
15665;SDS011;20725;51.196;3.510;2022-12-24T08:16:29;46.40;;;7.97;;
15665;SDS011;20725;51.196;3.510;2022-12-24T08:18:56;41.43;;;7.67;;
15665;SDS011;20725;51.196;3.510;2022-12-24T08:21:23;46.67;;;9.00;;
15665;SDS011;20725;51.196;3.510;2022-12-24T08:23:51;46.20;;;8.37;;
15665;SDS011;20725;51.196;3.510;2022-12-24T08:26:18;43.33;;;8.50;;
15665;SDS011;20725;51.196;3.510;2022-12-24T08:28:45;42.27;;;8.10;;
15665;SDS011;20725;51.196;3.510;2022-12-24T08:31:11;37.87;;;7.57;;
15665;SDS011;20725;51.196;3.510;2022-12-24T08:33:39;51.47;;;9.17;;
15665;SDS011;20725;51.196;3.510;2022-12-24T08:36:07;39.70;;;7.67;;
15665;SDS011;20725;51.196;3.510;2022-12-24T08:38:34;41.00;;;8.10;;
15665;SDS011;20725;51.196;3.510;2022-12-24T08:41:02;45.47;;;8.60;;
15665;SDS011;20725;51.196;3.510;2022-12-24T08:43:29;34.40;;;7.27;;
15665;SDS011;20725;51.196;3.510;2022-12-24T08:46:00;38.90;;;7.33;;
15665;SDS011;20725;51.196;3.510;2022-12-24T08:48:28;46.23;;;9.23;;
15665;SDS011;20725;51.196;3.510;2022-12-24T08:50:55;42.60;;;7.17;;
15665;SDS011;20725;51.196;3.510;2022-12-24T08:53:22;37.53;;;8.27;;
15665;SDS011;20725;51.196;3.510;2022-12-24T08:55:49;37.80;;;7.33;;
15665;SDS011;20725;51.196;3.510;2022-12-24T08:58:17;31.60;;;7.00;;
15665;SDS011;20725;51.196;3.510;2022-12-24T09:00:44;44.67;;;7.83;;
15665;SDS011;20725;51.196;3.510;2022-12-24T09:03:12;39.60;;;9.47;;
15665;SDS011;20725;51.196;3.510;2022-12-24T09:05:40;46.10;;;8.20;;
15665;SDS011;20725;51.196;3.510;2022-12-24T09:08:07;45.60;;;8.80;;
15665;SDS011;20725;51.196;3.510;2022-12-24T09:10:34;44.17;;;8.87;;
15665;SDS011;20725;51.196;3.510;2022-12-24T09:13:01;37.77;;;7.87;;
15665;SDS011;20725;51.196;3.510;2022-12-24T09:15:30;40.17;;;9.17;;
15665;SDS011;20725;51.196;3.510;2022-12-24T09:17:57;35.97;;;7.93;;
15665;SDS011;20725;51.196;3.510;2022-12-24T09:20:24;32.53;;;7.13;;
15665;SDS011;20725;51.196;3.510;2022-12-24T09:22:50;40.87;;;8.23;;
15665;SDS011;20725;51.196;3.510;2022-12-24T09:25:17;38.50;;;7.60;;
15665;SDS011;20725;51.196;3.510;2022-12-24T09:27:44;36.83;;;7.57;;
15665;SDS011;20725;51.196;3.510;2022-12-24T09:30:12;36.07;;;6.73;;
15665;SDS011;20725;51.196;3.510;2022-12-24T09:32:41;40.70;;;8.40;;
15665;SDS011;20725;51.196;3.510;2022-12-24T09:35:08;38.47;;;8.20;;
15665;SDS011;20725;51.196;3.510;2022-12-24T09:37:35;31.50;;;8.03;;
15665;SDS011;20725;51.196;3.510;2022-12-24T09:40:03;37.93;;;7.40;;
15665;SDS011;20725;51.196;3.510;2022-12-24T09:42:33;31.33;;;7.13;;
15665;SDS011;20725;51.196;3.510;2022-12-24T09:45:10;28.23;;;7.03;;
15665;SDS011;20725;51.196;3.510;2022-12-24T09:47:43;32.20;;;8.37;;
15665;SDS011;20725;51.196;3.510;2022-12-24T09:50:21;32.63;;;7.47;;
15665;SDS011;20725;51.196;3.510;2022-12-24T09:52:58;30.57;;;7.30;;
15665;SDS011;20725;51.196;3.510;2022-12-24T09:55:29;29.80;;;6.80;;
15665;SDS011;20725;51.196;3.510;2022-12-24T09:57:59;32.27;;;7.27;;
15665;SDS011;20725;51.196;3.510;2022-12-24T10:00:30;36.20;;;7.60;;
15665;SDS011;20725;51.196;3.510;2022-12-24T10:03:04;32.23;;;7.60;;
15665;SDS011;20725;51.196;3.510;2022-12-24T10:05:39;35.63;;;7.73;;
15665;SDS011;20725;51.196;3.510;2022-12-24T10:08:13;36.83;;;7.90;;
15665;SDS011;20725;51.196;3.510;2022-12-24T10:10:49;56.33;;;10.93;;
15665;SDS011;20725;51.196;3.510;2022-12-24T10:13:20;37.43;;;8.00;;
15665;SDS011;20725;51.196;3.510;2022-12-24T10:15:59;39.17;;;8.53;;
15665;SDS011;20725;51.196;3.510;2022-12-24T10:18:37;30.70;;;7.30;;
15665;SDS011;20725;51.196;3.510;2022-12-24T10:21:12;29.30;;;7.00;;
15665;SDS011;20725;51.196;3.510;2022-12-24T10:23:42;33.57;;;7.33;;
15665;SDS011;20725;51.196;3.510;2022-12-24T10:26:14;40.60;;;9.20;;
15665;SDS011;20725;51.196;3.510;2022-12-24T10:28:45;37.57;;;9.23;;
15665;SDS011;20725;51.196;3.510;2022-12-24T10:31:16;27.13;;;7.53;;
15665;SDS011;20725;51.196;3.510;2022-12-24T10:33:48;31.53;;;7.27;;
15665;SDS011;20725;51.196;3.510;2022-12-24T10:36:21;29.40;;;7.60;;
15665;SDS011;20725;51.196;3.510;2022-12-24T10:38:52;29.50;;;7.23;;
15665;SDS011;20725;51.196;3.510;2022-12-24T10:41:19;28.73;;;7.90;;
15665;SDS011;20725;51.196;3.510;2022-12-24T10:43:47;28.13;;;7.60;;
15665;SDS011;20725;51.196;3.510;2022-12-24T10:46:16;28.63;;;7.80;;
15665;SDS011;20725;51.196;3.510;2022-12-24T10:48:49;27.83;;;7.27;;
15665;SDS011;20725;51.196;3.510;2022-12-24T10:51:21;30.63;;;8.03;;
15665;SDS011;20725;51.196;3.510;2022-12-24T10:53:55;26.83;;;7.57;;
15665;SDS011;20725;51.196;3.510;2022-12-24T10:56:27;21.57;;;6.80;;
15665;SDS011;20725;51.196;3.510;2022-12-24T10:58:54;25.13;;;6.87;;
15665;SDS011;20725;51.196;3.510;2022-12-24T11:01:40;27.27;;;7.20;;
15665;SDS011;20725;51.196;3.510;2022-12-24T11:04:15;28.47;;;7.70;;
15665;SDS011;20725;51.196;3.510;2022-12-24T11:06:50;27.40;;;8.03;;
15665;SDS011;20725;51.196;3.510;2022-12-24T11:09:20;30.03;;;7.77;;
15665;SDS011;20725;51.196;3.510;2022-12-24T11:11:49;32.07;;;7.17;;
15665;SDS011;20725;51.196;3.510;2022-12-24T11:14:16;29.07;;;7.87;;
15665;SDS011;20725;51.196;3.510;2022-12-24T11:16:49;24.93;;;6.60;;
15665;SDS011;20725;51.196;3.510;2022-12-24T11:19:21;35.00;;;7.90;;
15665;SDS011;20725;51.196;3.510;2022-12-24T11:22:00;30.40;;;7.87;;
15665;SDS011;20725;51.196;3.510;2022-12-24T11:24:29;27.47;;;7.33;;
15665;SDS011;20725;51.196;3.510;2022-12-24T11:29:48;33.83;;;7.47;;
15665;SDS011;20725;51.196;3.510;2022-12-24T11:32:16;31.00;;;7.20;;
15665;SDS011;20725;51.196;3.510;2022-12-24T11:34:46;32.50;;;7.60;;
15665;SDS011;20725;51.196;3.510;2022-12-24T11:37:14;32.40;;;7.47;;
15665;SDS011;20725;51.196;3.510;2022-12-24T11:39:44;33.53;;;7.30;;
15665;SDS011;20725;51.196;3.510;2022-12-24T11:42:24;30.03;;;7.03;;
15665;SDS011;20725;51.196;3.510;2022-12-24T11:44:55;40.53;;;8.50;;
15665;SDS011;20725;51.196;3.510;2022-12-24T11:47:31;37.70;;;8.47;;
15665;SDS011;20725;51.196;3.510;2022-12-24T11:53:02;24.70;;;6.80;;
15665;SDS011;20725;51.196;3.510;2022-12-24T11:55:35;32.90;;;7.87;;
15665;SDS011;20725;51.196;3.510;2022-12-24T11:58:13;34.73;;;8.57;;
15665;SDS011;20725;51.196;3.510;2022-12-24T12:00:46;32.30;;;8.40;;
15665;SDS011;20725;51.196;3.510;2022-12-24T12:03:19;36.47;;;8.03;;
15665;SDS011;20725;51.196;3.510;2022-12-24T12:05:55;33.97;;;7.93;;
15665;SDS011;20725;51.196;3.510;2022-12-24T12:08:25;31.23;;;7.83;;
15665;SDS011;20725;51.196;3.510;2022-12-24T12:10:54;24.07;;;7.60;;
15665;SDS011;20725;51.196;3.510;2022-12-24T12:13:25;30.60;;;7.80;;
15665;SDS011;20725;51.196;3.510;2022-12-24T12:16:01;32.40;;;7.90;;
15665;SDS011;20725;51.196;3.510;2022-12-24T12:18:37;35.67;;;8.37;;
15665;SDS011;20725;51.196;3.510;2022-12-24T12:21:08;25.27;;;6.70;;
15665;SDS011;20725;51.196;3.510;2022-12-24T12:23:41;35.37;;;8.17;;
15665;SDS011;20725;51.196;3.510;2022-12-24T12:26:14;28.30;;;6.97;;
15665;SDS011;20725;51.196;3.510;2022-12-24T12:28:44;31.70;;;7.70;;
15665;SDS011;20725;51.196;3.510;2022-12-24T12:31:18;30.57;;;7.93;;
15665;SDS011;20725;51.196;3.510;2022-12-24T12:33:49;29.87;;;7.33;;
15665;SDS011;20725;51.196;3.510;2022-12-24T12:36:24;33.43;;;7.17;;
15665;SDS011;20725;51.196;3.510;2022-12-24T12:38:56;35.90;;;7.57;;
15665;SDS011;20725;51.196;3.510;2022-12-24T12:41:25;27.40;;;7.17;;
15665;SDS011;20725;51.196;3.510;2022-12-24T12:47:11;32.80;;;7.50;;
15665;SDS011;20725;51.196;3.510;2022-12-24T12:49:53;29.63;;;7.13;;
15665;SDS011;20725;51.196;3.510;2022-12-24T12:52:32;33.00;;;7.43;;
15665;SDS011;20725;51.196;3.510;2022-12-24T12:55:16;27.40;;;7.87;;
15665;SDS011;20725;51.196;3.510;2022-12-24T12:57:51;29.47;;;7.30;;
15665;SDS011;20725;51.196;3.510;2022-12-24T13:00:22;34.03;;;7.23;;
15665;SDS011;20725;51.196;3.510;2022-12-24T13:02:51;34.27;;;8.43;;
15665;SDS011;20725;51.196;3.510;2022-12-24T13:08:24;30.07;;;6.80;;
15665;SDS011;20725;51.196;3.510;2022-12-24T13:11:15;31.60;;;7.47;;
15665;SDS011;20725;51.196;3.510;2022-12-24T13:14:16;29.53;;;7.70;;
15665;SDS011;20725;51.196;3.510;2022-12-24T13:17:05;34.73;;;7.90;;
15665;SDS011;20725;51.196;3.510;2022-12-24T13:22:47;28.33;;;7.50;;
15665;SDS011;20725;51.196;3.510;2022-12-24T13:25:21;28.73;;;7.10;;
15665;SDS011;20725;51.196;3.510;2022-12-24T13:27:52;26.90;;;7.00;;
15665;SDS011;20725;51.196;3.510;2022-12-24T13:30:35;31.20;;;7.70;;
15665;SDS011;20725;51.196;3.510;2022-12-24T13:33:04;26.97;;;7.20;;
15665;SDS011;20725;51.196;3.510;2022-12-24T13:35:36;31.43;;;7.70;;
15665;SDS011;20725;51.196;3.510;2022-12-24T13:38:31;26.83;;;6.90;;
15665;SDS011;20725;51.196;3.510;2022-12-24T13:44:28;30.43;;;7.10;;
15665;SDS011;20725;51.196;3.510;2022-12-24T13:46:59;29.37;;;7.17;;
15665;SDS011;20725;51.196;3.510;2022-12-24T13:49:30;34.20;;;7.37;;
15665;SDS011;20725;51.196;3.510;2022-12-24T13:52:07;31.97;;;6.97;;
15665;SDS011;20725;51.196;3.510;2022-12-24T13:54:44;38.00;;;9.23;;
15665;SDS011;20725;51.196;3.510;2022-12-24T13:57:25;35.93;;;7.67;;
15665;SDS011;20725;51.196;3.510;2022-12-24T14:00:01;24.27;;;6.83;;
15665;SDS011;20725;51.196;3.510;2022-12-24T14:02:34;25.60;;;7.53;;
15665;SDS011;20725;51.196;3.510;2022-12-24T14:05:06;29.17;;;7.63;;
15665;SDS011;20725;51.196;3.510;2022-12-24T14:07:43;33.50;;;8.17;;
15665;SDS011;20725;51.196;3.510;2022-12-24T14:10:18;28.13;;;7.77;;
15665;SDS011;20725;51.196;3.510;2022-12-24T14:12:49;28.93;;;8.20;;
15665;SDS011;20725;51.196;3.510;2022-12-24T14:18:31;23.20;;;7.00;;
15665;SDS011;20725;51.196;3.510;2022-12-24T14:21:02;29.90;;;7.37;;
15665;SDS011;20725;51.196;3.510;2022-12-24T14:23:41;26.33;;;7.60;;
15665;SDS011;20725;51.196;3.510;2022-12-24T14:26:16;29.07;;;7.43;;
15665;SDS011;20725;51.196;3.510;2022-12-24T14:28:45;29.33;;;7.40;;
15665;SDS011;20725;51.196;3.510;2022-12-24T14:31:19;30.57;;;6.97;;
15665;SDS011;20725;51.196;3.510;2022-12-24T14:33:48;34.53;;;7.93;;
15665;SDS011;20725;51.196;3.510;2022-12-24T14:36:17;33.97;;;7.67;;
15665;SDS011;20725;51.196;3.510;2022-12-24T14:38:47;31.33;;;7.23;;
15665;SDS011;20725;51.196;3.510;2022-12-24T14:41:26;33.60;;;7.37;;
15665;SDS011;20725;51.196;3.510;2022-12-24T14:44:04;28.70;;;8.37;;
15665;SDS011;20725;51.196;3.510;2022-12-24T14:46:37;33.97;;;8.50;;
15665;SDS011;20725;51.196;3.510;2022-12-24T14:49:12;33.97;;;7.37;;
15665;SDS011;20725;51.196;3.510;2022-12-24T14:51:49;29.77;;;7.33;;
15665;SDS011;20725;51.196;3.510;2022-12-24T14:57:13;25.00;;;7.10;;
15665;SDS011;20725;51.196;3.510;2022-12-24T14:59:46;34.23;;;7.97;;
15665;SDS011;20725;51.196;3.510;2022-12-24T15:05:10;31.63;;;7.97;;
15665;SDS011;20725;51.196;3.510;2022-12-24T15:07:44;30.77;;;8.90;;
15665;SDS011;20725;51.196;3.510;2022-12-24T15:10:26;35.80;;;10.90;;
15665;SDS011;20725;51.196;3.510;2022-12-24T15:12:56;33.67;;;10.70;;
15665;SDS011;20725;51.196;3.510;2022-12-24T15:15:27;32.07;;;9.03;;
15665;SDS011;20725;51.196;3.510;2022-12-24T15:17:55;30.40;;;9.10;;
15665;SDS011;20725;51.196;3.510;2022-12-24T15:20:26;36.13;;;8.87;;
15665;SDS011;20725;51.196;3.510;2022-12-24T15:22:55;29.83;;;9.83;;
15665;SDS011;20725;51.196;3.510;2022-12-24T15:25:24;28.27;;;9.10;;
15665;SDS011;20725;51.196;3.510;2022-12-24T15:27:52;33.20;;;8.63;;